sensor_id;sensor_type;location;lat;lon;timestamp;temperature;humidity
11320;DHT22;5715;48.234;14.320;2022-11-15T00:00:30;4.30;99.90
11320;DHT22;5715;48.234;14.320;2022-11-15T00:03:22;4.20;99.90
11320;DHT22;5715;48.234;14.320;2022-11-15T00:06:11;4.20;99.90
11320;DHT22;5715;48.234;14.320;2022-11-15T00:09:00;4.10;99.90
11320;DHT22;5715;48.234;14.320;2022-11-15T00:11:47;4.10;99.90
11320;DHT22;5715;48.234;14.320;2022-11-15T00:14:35;4.10;99.90
11320;DHT22;5715;48.234;14.320;2022-11-15T00:17:22;4.10;99.90
11320;DHT22;5715;48.234;14.320;2022-11-15T00:20:10;4.10;99.90
11320;DHT22;5715;48.234;14.320;2022-11-15T00:22:58;4.00;99.90
11320;DHT22;5715;48.234;14.320;2022-11-15T00:25:46;4.00;99.90
11320;DHT22;5715;48.234;14.320;2022-11-15T00:28:33;3.90;99.90
11320;DHT22;5715;48.234;14.320;2022-11-15T00:31:21;3.90;99.90
11320;DHT22;5715;48.234;14.320;2022-11-15T00:34:09;3.80;99.90
11320;DHT22;5715;48.234;14.320;2022-11-15T00:36:57;3.80;99.90
11320;DHT22;5715;48.234;14.320;2022-11-15T00:39:45;3.80;99.90
11320;DHT22;5715;48.234;14.320;2022-11-15T00:42:32;3.70;99.90
11320;DHT22;5715;48.234;14.320;2022-11-15T00:45:20;3.70;99.90
11320;DHT22;5715;48.234;14.320;2022-11-15T00:48:08;3.70;99.90
11320;DHT22;5715;48.234;14.320;2022-11-15T00:50:57;3.70;99.90
11320;DHT22;5715;48.234;14.320;2022-11-15T00:53:44;3.70;99.90
11320;DHT22;5715;48.234;14.320;2022-11-15T00:56:32;3.70;99.90
11320;DHT22;5715;48.234;14.320;2022-11-15T00:59:19;3.70;99.90
11320;DHT22;5715;48.234;14.320;2022-11-15T01:02:07;3.70;99.90
11320;DHT22;5715;48.234;14.320;2022-11-15T01:04:54;3.70;99.90
11320;DHT22;5715;48.234;14.320;2022-11-15T01:07:42;3.70;99.90
11320;DHT22;5715;48.234;14.320;2022-11-15T01:10:29;3.60;99.90
11320;DHT22;5715;48.234;14.320;2022-11-15T01:13:17;3.60;99.90
11320;DHT22;5715;48.234;14.320;2022-11-15T01:16:15;3.60;99.90
11320;DHT22;5715;48.234;14.320;2022-11-15T01:19:04;3.50;99.90
11320;DHT22;5715;48.234;14.320;2022-11-15T01:21:52;3.50;99.90
11320;DHT22;5715;48.234;14.320;2022-11-15T01:24:39;3.50;99.90
11320;DHT22;5715;48.234;14.320;2022-11-15T01:27:26;3.40;99.90
11320;DHT22;5715;48.234;14.320;2022-11-15T01:30:14;3.40;99.90
11320;DHT22;5715;48.234;14.320;2022-11-15T01:33:02;3.40;99.90
11320;DHT22;5715;48.234;14.320;2022-11-15T01:35:49;3.40;99.90
11320;DHT22;5715;48.234;14.320;2022-11-15T01:38:37;3.30;99.90
11320;DHT22;5715;48.234;14.320;2022-11-15T01:41:31;3.30;99.90
11320;DHT22;5715;48.234;14.320;2022-11-15T01:44:39;3.20;99.90
11320;DHT22;5715;48.234;14.320;2022-11-15T01:47:40;3.20;99.90
11320;DHT22;5715;48.234;14.320;2022-11-15T01:50:32;3.20;99.90
11320;DHT22;5715;48.234;14.320;2022-11-15T01:53:21;3.20;99.90
11320;DHT22;5715;48.234;14.320;2022-11-15T01:56:16;3.20;99.90
11320;DHT22;5715;48.234;14.320;2022-11-15T01:59:08;3.20;99.90
11320;DHT22;5715;48.234;14.320;2022-11-15T02:01:57;3.20;99.90
11320;DHT22;5715;48.234;14.320;2022-11-15T02:04:46;3.20;99.90
11320;DHT22;5715;48.234;14.320;2022-11-15T02:07:36;3.20;99.90
11320;DHT22;5715;48.234;14.320;2022-11-15T02:10:25;3.10;99.90
11320;DHT22;5715;48.234;14.320;2022-11-15T02:13:14;3.10;99.90
11320;DHT22;5715;48.234;14.320;2022-11-15T02:16:13;3.10;99.90
11320;DHT22;5715;48.234;14.320;2022-11-15T02:22:51;3.00;99.90
11320;DHT22;5715;48.234;14.320;2022-11-15T02:26:14;3.00;99.90
11320;DHT22;5715;48.234;14.320;2022-11-15T02:32:58;3.00;99.90
11320;DHT22;5715;48.234;14.320;2022-11-15T02:43:21;3.00;99.90
11320;DHT22;5715;48.234;14.320;2022-11-15T02:46:47;3.00;99.90
11320;DHT22;5715;48.234;14.320;2022-11-15T02:50:00;3.00;99.90
11320;DHT22;5715;48.234;14.320;2022-11-15T02:52:53;3.00;99.90
11320;DHT22;5715;48.234;14.320;2022-11-15T02:55:44;2.90;99.90
11320;DHT22;5715;48.234;14.320;2022-11-15T02:59:07;2.90;99.90
11320;DHT22;5715;48.234;14.320;2022-11-15T03:11:43;2.90;99.90
11320;DHT22;5715;48.234;14.320;2022-11-15T03:14:48;2.90;99.90
11320;DHT22;5715;48.234;14.320;2022-11-15T03:17:53;3.00;99.90
11320;DHT22;5715;48.234;14.320;2022-11-15T03:20:46;3.00;99.90
11320;DHT22;5715;48.234;14.320;2022-11-15T03:23:38;2.80;99.90
11320;DHT22;5715;48.234;14.320;2022-11-15T03:26:27;2.80;99.90
11320;DHT22;5715;48.234;14.320;2022-11-15T03:29:21;2.80;99.90
11320;DHT22;5715;48.234;14.320;2022-11-15T03:32:16;2.70;99.90
11320;DHT22;5715;48.234;14.320;2022-11-15T03:35:22;2.70;99.90
11320;DHT22;5715;48.234;14.320;2022-11-15T03:38:24;2.70;99.90
11320;DHT22;5715;48.234;14.320;2022-11-15T03:41:24;2.80;99.90
11320;DHT22;5715;48.234;14.320;2022-11-15T03:48:02;2.90;99.90
11320;DHT22;5715;48.234;14.320;2022-11-15T03:51:03;3.00;99.90
11320;DHT22;5715;48.234;14.320;2022-11-15T03:53:52;3.10;99.90
11320;DHT22;5715;48.234;14.320;2022-11-15T03:56:39;3.20;99.90
11320;DHT22;5715;48.234;14.320;2022-11-15T03:59:27;3.20;99.90
11320;DHT22;5715;48.234;14.320;2022-11-15T04:02:15;3.20;99.90
11320;DHT22;5715;48.234;14.320;2022-11-15T04:05:03;3.20;99.90
11320;DHT22;5715;48.234;14.320;2022-11-15T04:07:51;3.20;99.90
11320;DHT22;5715;48.234;14.320;2022-11-15T04:10:39;3.20;99.90
11320;DHT22;5715;48.234;14.320;2022-11-15T04:13:27;3.20;99.90
11320;DHT22;5715;48.234;14.320;2022-11-15T04:16:15;3.30;99.90
11320;DHT22;5715;48.234;14.320;2022-11-15T04:19:02;3.30;99.90
11320;DHT22;5715;48.234;14.320;2022-11-15T04:22:09;3.20;99.90
11320;DHT22;5715;48.234;14.320;2022-11-15T04:25:15;3.20;99.90
11320;DHT22;5715;48.234;14.320;2022-11-15T04:28:10;3.10;99.90
11320;DHT22;5715;48.234;14.320;2022-11-15T04:30:58;2.90;99.90
11320;DHT22;5715;48.234;14.320;2022-11-15T04:33:46;3.10;99.90
11320;DHT22;5715;48.234;14.320;2022-11-15T04:36:34;3.10;99.90
11320;DHT22;5715;48.234;14.320;2022-11-15T04:39:40;3.10;99.90
11320;DHT22;5715;48.234;14.320;2022-11-15T04:42:29;3.10;99.90
11320;DHT22;5715;48.234;14.320;2022-11-15T04:45:17;3.10;99.90
11320;DHT22;5715;48.234;14.320;2022-11-15T04:48:05;3.20;99.90
11320;DHT22;5715;48.234;14.320;2022-11-15T04:50:52;3.20;99.90
11320;DHT22;5715;48.234;14.320;2022-11-15T04:53:40;3.20;99.90
11320;DHT22;5715;48.234;14.320;2022-11-15T04:56:27;3.10;99.90
11320;DHT22;5715;48.234;14.320;2022-11-15T04:59:15;3.20;99.90
11320;DHT22;5715;48.234;14.320;2022-11-15T05:02:02;3.10;99.90
11320;DHT22;5715;48.234;14.320;2022-11-15T05:04:50;3.10;99.90
11320;DHT22;5715;48.234;14.320;2022-11-15T05:07:37;3.10;99.90
11320;DHT22;5715;48.234;14.320;2022-11-15T05:10:25;3.10;99.90
11320;DHT22;5715;48.234;14.320;2022-11-15T05:13:12;3.10;99.90
11320;DHT22;5715;48.234;14.320;2022-11-15T05:16:00;3.10;99.90
11320;DHT22;5715;48.234;14.320;2022-11-15T05:18:51;3.10;99.90
11320;DHT22;5715;48.234;14.320;2022-11-15T05:21:39;3.00;99.90
11320;DHT22;5715;48.234;14.320;2022-11-15T05:24:27;3.10;99.90
11320;DHT22;5715;48.234;14.320;2022-11-15T05:27:15;3.20;99.90
11320;DHT22;5715;48.234;14.320;2022-11-15T05:30:03;3.20;99.90
11320;DHT22;5715;48.234;14.320;2022-11-15T05:32:50;3.30;99.90
11320;DHT22;5715;48.234;14.320;2022-11-15T05:35:44;3.50;99.90
11320;DHT22;5715;48.234;14.320;2022-11-15T05:38:36;3.70;99.90
11320;DHT22;5715;48.234;14.320;2022-11-15T05:41:32;3.90;99.90
11320;DHT22;5715;48.234;14.320;2022-11-15T05:44:24;4.00;99.90
11320;DHT22;5715;48.234;14.320;2022-11-15T05:47:22;4.00;99.90
11320;DHT22;5715;48.234;14.320;2022-11-15T05:50:14;3.90;99.90
11320;DHT22;5715;48.234;14.320;2022-11-15T05:53:05;3.70;99.90
11320;DHT22;5715;48.234;14.320;2022-11-15T05:55:53;3.60;99.90
11320;DHT22;5715;48.234;14.320;2022-11-15T05:58:42;3.50;99.90
11320;DHT22;5715;48.234;14.320;2022-11-15T06:01:30;3.30;99.90
11320;DHT22;5715;48.234;14.320;2022-11-15T06:04:18;3.20;99.90
11320;DHT22;5715;48.234;14.320;2022-11-15T06:07:05;3.10;99.90
11320;DHT22;5715;48.234;14.320;2022-11-15T06:09:53;3.10;99.90
11320;DHT22;5715;48.234;14.320;2022-11-15T06:12:40;3.00;99.90
11320;DHT22;5715;48.234;14.320;2022-11-15T06:15:28;3.00;99.90
11320;DHT22;5715;48.234;14.320;2022-11-15T06:18:15;2.90;99.90
11320;DHT22;5715;48.234;14.320;2022-11-15T06:21:03;2.90;99.90
11320;DHT22;5715;48.234;14.320;2022-11-15T06:23:51;3.00;99.90
11320;DHT22;5715;48.234;14.320;2022-11-15T06:26:39;3.10;99.90
11320;DHT22;5715;48.234;14.320;2022-11-15T06:29:26;3.10;99.90
11320;DHT22;5715;48.234;14.320;2022-11-15T06:32:13;3.20;99.90
11320;DHT22;5715;48.234;14.320;2022-11-15T06:35:01;3.30;99.90
11320;DHT22;5715;48.234;14.320;2022-11-15T06:37:49;3.50;99.90
11320;DHT22;5715;48.234;14.320;2022-11-15T06:40:37;3.70;99.90
11320;DHT22;5715;48.234;14.320;2022-11-15T06:43:26;4.00;99.90
11320;DHT22;5715;48.234;14.320;2022-11-15T06:46:14;4.30;99.90
11320;DHT22;5715;48.234;14.320;2022-11-15T06:49:01;4.50;99.90
11320;DHT22;5715;48.234;14.320;2022-11-15T06:51:55;4.70;99.90
11320;DHT22;5715;48.234;14.320;2022-11-15T06:54:43;4.90;99.90
11320;DHT22;5715;48.234;14.320;2022-11-15T06:57:31;5.00;99.90
11320;DHT22;5715;48.234;14.320;2022-11-15T07:00:21;5.10;99.90
11320;DHT22;5715;48.234;14.320;2022-11-15T07:03:10;5.20;99.90
11320;DHT22;5715;48.234;14.320;2022-11-15T07:05:58;5.20;99.90
11320;DHT22;5715;48.234;14.320;2022-11-15T07:08:52;5.30;99.90
11320;DHT22;5715;48.234;14.320;2022-11-15T07:11:41;5.40;99.90
11320;DHT22;5715;48.234;14.320;2022-11-15T07:14:29;5.50;99.90
11320;DHT22;5715;48.234;14.320;2022-11-15T07:17:16;5.50;99.90
11320;DHT22;5715;48.234;14.320;2022-11-15T07:20:04;5.50;99.90
11320;DHT22;5715;48.234;14.320;2022-11-15T07:23:02;5.60;99.90
11320;DHT22;5715;48.234;14.320;2022-11-15T07:25:51;5.60;99.90
11320;DHT22;5715;48.234;14.320;2022-11-15T07:28:39;5.60;99.90
11320;DHT22;5715;48.234;14.320;2022-11-15T07:31:26;5.70;99.90
11320;DHT22;5715;48.234;14.320;2022-11-15T07:34:14;5.80;99.90
11320;DHT22;5715;48.234;14.320;2022-11-15T07:37:01;5.80;99.90
11320;DHT22;5715;48.234;14.320;2022-11-15T07:39:49;5.80;99.90
11320;DHT22;5715;48.234;14.320;2022-11-15T07:42:36;5.90;99.90
11320;DHT22;5715;48.234;14.320;2022-11-15T07:45:44;5.90;99.90
11320;DHT22;5715;48.234;14.320;2022-11-15T07:48:32;5.90;99.90
11320;DHT22;5715;48.234;14.320;2022-11-15T07:51:30;6.00;99.90
11320;DHT22;5715;48.234;14.320;2022-11-15T07:54:17;6.00;99.90
11320;DHT22;5715;48.234;14.320;2022-11-15T07:57:05;6.00;99.90
11320;DHT22;5715;48.234;14.320;2022-11-15T07:59:54;6.00;99.90
11320;DHT22;5715;48.234;14.320;2022-11-15T08:02:42;6.00;99.90
11320;DHT22;5715;48.234;14.320;2022-11-15T08:05:31;6.00;99.90
11320;DHT22;5715;48.234;14.320;2022-11-15T08:08:19;6.10;99.90
11320;DHT22;5715;48.234;14.320;2022-11-15T08:11:06;6.10;99.90
11320;DHT22;5715;48.234;14.320;2022-11-15T08:13:54;6.10;99.90
11320;DHT22;5715;48.234;14.320;2022-11-15T08:16:41;6.20;99.90
11320;DHT22;5715;48.234;14.320;2022-11-15T08:19:29;6.20;99.90
11320;DHT22;5715;48.234;14.320;2022-11-15T08:22:17;6.20;99.90
11320;DHT22;5715;48.234;14.320;2022-11-15T08:25:05;6.20;99.90
11320;DHT22;5715;48.234;14.320;2022-11-15T08:27:54;6.20;99.90
11320;DHT22;5715;48.234;14.320;2022-11-15T08:30:43;6.30;99.90
11320;DHT22;5715;48.234;14.320;2022-11-15T08:33:32;6.30;99.90
11320;DHT22;5715;48.234;14.320;2022-11-15T08:36:22;6.30;99.90
11320;DHT22;5715;48.234;14.320;2022-11-15T08:39:11;6.30;99.90
11320;DHT22;5715;48.234;14.320;2022-11-15T08:41:59;6.30;99.90
11320;DHT22;5715;48.234;14.320;2022-11-15T08:44:47;6.30;99.90
11320;DHT22;5715;48.234;14.320;2022-11-15T08:47:34;6.20;99.90
11320;DHT22;5715;48.234;14.320;2022-11-15T08:50:22;6.30;99.90
11320;DHT22;5715;48.234;14.320;2022-11-15T08:53:10;6.30;99.90
11320;DHT22;5715;48.234;14.320;2022-11-15T08:55:59;6.40;99.90
11320;DHT22;5715;48.234;14.320;2022-11-15T08:58:47;6.40;99.90
11320;DHT22;5715;48.234;14.320;2022-11-15T09:01:35;6.40;99.90
11320;DHT22;5715;48.234;14.320;2022-11-15T09:04:22;6.40;99.90
11320;DHT22;5715;48.234;14.320;2022-11-15T09:07:10;6.50;99.90
11320;DHT22;5715;48.234;14.320;2022-11-15T09:09:59;6.50;99.90
11320;DHT22;5715;48.234;14.320;2022-11-15T09:12:47;6.60;99.90
11320;DHT22;5715;48.234;14.320;2022-11-15T09:15:37;6.70;99.90
11320;DHT22;5715;48.234;14.320;2022-11-15T09:18:25;6.80;99.90
11320;DHT22;5715;48.234;14.320;2022-11-15T09:21:12;6.80;99.90
11320;DHT22;5715;48.234;14.320;2022-11-15T09:24:01;6.90;99.90
11320;DHT22;5715;48.234;14.320;2022-11-15T09:26:50;6.90;99.90
11320;DHT22;5715;48.234;14.320;2022-11-15T09:29:38;6.90;99.90
11320;DHT22;5715;48.234;14.320;2022-11-15T09:32:28;6.90;99.90
11320;DHT22;5715;48.234;14.320;2022-11-15T09:35:24;6.90;99.90
11320;DHT22;5715;48.234;14.320;2022-11-15T09:38:12;6.90;99.90
11320;DHT22;5715;48.234;14.320;2022-11-15T09:50:56;7.10;99.90
11320;DHT22;5715;48.234;14.320;2022-11-15T09:53:48;7.00;99.90
11320;DHT22;5715;48.234;14.320;2022-11-15T09:57:11;7.10;99.90
11320;DHT22;5715;48.234;14.320;2022-11-15T10:03:38;7.00;99.90
11320;DHT22;5715;48.234;14.320;2022-11-15T10:06:31;7.10;99.90
11320;DHT22;5715;48.234;14.320;2022-11-15T10:09:26;7.10;99.90
11320;DHT22;5715;48.234;14.320;2022-11-15T10:12:19;7.10;99.90
11320;DHT22;5715;48.234;14.320;2022-11-15T10:15:13;7.10;99.90
11320;DHT22;5715;48.234;14.320;2022-11-15T10:18:12;7.10;99.90
11320;DHT22;5715;48.234;14.320;2022-11-15T10:21:17;7.10;99.90
11320;DHT22;5715;48.234;14.320;2022-11-15T10:24:12;7.00;99.90
11320;DHT22;5715;48.234;14.320;2022-11-15T10:27:15;7.00;99.90
11320;DHT22;5715;48.234;14.320;2022-11-15T10:30:11;7.10;99.90
11320;DHT22;5715;48.234;14.320;2022-11-15T10:33:32;7.00;99.90
11320;DHT22;5715;48.234;14.320;2022-11-15T10:36:22;7.00;99.90
11320;DHT22;5715;48.234;14.320;2022-11-15T10:39:13;6.90;99.90
11320;DHT22;5715;48.234;14.320;2022-11-15T10:42:26;7.00;99.90
11320;DHT22;5715;48.234;14.320;2022-11-15T10:45:26;7.00;99.90
11320;DHT22;5715;48.234;14.320;2022-11-15T10:48:23;6.90;99.90
11320;DHT22;5715;48.234;14.320;2022-11-15T10:51:27;6.90;99.90
11320;DHT22;5715;48.234;14.320;2022-11-15T10:57:32;6.80;99.90
11320;DHT22;5715;48.234;14.320;2022-11-15T11:00:29;6.70;99.90
11320;DHT22;5715;48.234;14.320;2022-11-15T11:03:35;6.80;99.90
11320;DHT22;5715;48.234;14.320;2022-11-15T11:06:27;6.80;99.90
11320;DHT22;5715;48.234;14.320;2022-11-15T11:12:32;6.90;99.90
11320;DHT22;5715;48.234;14.320;2022-11-15T11:15:23;6.80;99.90
11320;DHT22;5715;48.234;14.320;2022-11-15T11:18:39;6.80;99.90
11320;DHT22;5715;48.234;14.320;2022-11-15T11:24:41;6.80;99.90
11320;DHT22;5715;48.234;14.320;2022-11-15T11:34:13;6.90;99.90
11320;DHT22;5715;48.234;14.320;2022-11-15T11:37:20;6.80;99.90
11320;DHT22;5715;48.234;14.320;2022-11-15T11:50:17;7.00;99.90
11320;DHT22;5715;48.234;14.320;2022-11-15T11:53:41;7.00;99.90
11320;DHT22;5715;48.234;14.320;2022-11-15T11:56:39;7.00;99.90
11320;DHT22;5715;48.234;14.320;2022-11-15T11:59:53;7.10;99.90
11320;DHT22;5715;48.234;14.320;2022-11-15T12:03:05;7.10;99.90
11320;DHT22;5715;48.234;14.320;2022-11-15T12:06:30;7.20;99.90
11320;DHT22;5715;48.234;14.320;2022-11-15T12:10:01;7.20;99.90
11320;DHT22;5715;48.234;14.320;2022-11-15T12:13:04;7.30;99.90
11320;DHT22;5715;48.234;14.320;2022-11-15T12:16:08;7.30;99.90
11320;DHT22;5715;48.234;14.320;2022-11-15T12:19:04;7.40;99.90
11320;DHT22;5715;48.234;14.320;2022-11-15T12:28:40;7.40;99.90
11320;DHT22;5715;48.234;14.320;2022-11-15T12:31:54;7.40;99.90
11320;DHT22;5715;48.234;14.320;2022-11-15T12:34:48;7.40;99.90
11320;DHT22;5715;48.234;14.320;2022-11-15T12:47:36;7.40;99.90
11320;DHT22;5715;48.234;14.320;2022-11-15T12:53:43;7.40;99.90
11320;DHT22;5715;48.234;14.320;2022-11-15T12:56:31;7.30;99.90
11320;DHT22;5715;48.234;14.320;2022-11-15T13:02:43;7.30;99.90
11320;DHT22;5715;48.234;14.320;2022-11-15T13:08:40;7.30;99.90
11320;DHT22;5715;48.234;14.320;2022-11-15T13:11:57;7.30;99.90
11320;DHT22;5715;48.234;14.320;2022-11-15T13:18:25;7.40;99.90
11320;DHT22;5715;48.234;14.320;2022-11-15T13:21:22;7.50;99.90
11320;DHT22;5715;48.234;14.320;2022-11-15T13:24:29;7.50;99.90
11320;DHT22;5715;48.234;14.320;2022-11-15T13:27:19;7.40;99.90
11320;DHT22;5715;48.234;14.320;2022-11-15T13:30:29;7.40;99.90
11320;DHT22;5715;48.234;14.320;2022-11-15T13:33:34;7.50;99.90
11320;DHT22;5715;48.234;14.320;2022-11-15T13:36:32;7.40;99.90
11320;DHT22;5715;48.234;14.320;2022-11-15T13:39:31;7.50;99.90
11320;DHT22;5715;48.234;14.320;2022-11-15T13:42:21;7.40;99.90
11320;DHT22;5715;48.234;14.320;2022-11-15T13:45:13;7.40;99.90
11320;DHT22;5715;48.234;14.320;2022-11-15T13:48:04;7.40;99.90
11320;DHT22;5715;48.234;14.320;2022-11-15T13:50:53;7.50;99.90
11320;DHT22;5715;48.234;14.320;2022-11-15T13:53:44;7.50;99.90
11320;DHT22;5715;48.234;14.320;2022-11-15T13:56:34;7.40;99.90
11320;DHT22;5715;48.234;14.320;2022-11-15T13:59:29;7.50;99.90
11320;DHT22;5715;48.234;14.320;2022-11-15T14:02:24;7.50;99.90
11320;DHT22;5715;48.234;14.320;2022-11-15T14:05:26;7.50;99.90
11320;DHT22;5715;48.234;14.320;2022-11-15T14:11:15;7.50;99.90
11320;DHT22;5715;48.234;14.320;2022-11-15T14:17:00;7.60;99.90
11320;DHT22;5715;48.234;14.320;2022-11-15T14:19:48;7.60;99.90
11320;DHT22;5715;48.234;14.320;2022-11-15T14:22:36;7.60;99.90
11320;DHT22;5715;48.234;14.320;2022-11-15T14:25:34;7.60;99.90
11320;DHT22;5715;48.234;14.320;2022-11-15T14:31:12;7.50;99.90
11320;DHT22;5715;48.234;14.320;2022-11-15T14:34:00;7.50;99.90
11320;DHT22;5715;48.234;14.320;2022-11-15T14:36:48;7.40;99.90
11320;DHT22;5715;48.234;14.320;2022-11-15T14:39:35;7.40;99.90
11320;DHT22;5715;48.234;14.320;2022-11-15T14:42:23;7.40;99.90
11320;DHT22;5715;48.234;14.320;2022-11-15T14:45:20;7.40;99.90
11320;DHT22;5715;48.234;14.320;2022-11-15T14:48:09;7.40;99.90
11320;DHT22;5715;48.234;14.320;2022-11-15T14:50:56;7.40;99.90
11320;DHT22;5715;48.234;14.320;2022-11-15T14:53:45;7.30;99.90
11320;DHT22;5715;48.234;14.320;2022-11-15T14:56:33;7.40;99.90
11320;DHT22;5715;48.234;14.320;2022-11-15T14:59:21;7.30;99.90
11320;DHT22;5715;48.234;14.320;2022-11-15T15:02:29;7.30;99.90
11320;DHT22;5715;48.234;14.320;2022-11-15T15:05:19;7.30;99.90
11320;DHT22;5715;48.234;14.320;2022-11-15T15:08:11;7.30;99.90
11320;DHT22;5715;48.234;14.320;2022-11-15T15:10:59;7.30;99.90
11320;DHT22;5715;48.234;14.320;2022-11-15T15:13:47;7.20;99.90
11320;DHT22;5715;48.234;14.320;2022-11-15T15:16:34;7.20;99.90
11320;DHT22;5715;48.234;14.320;2022-11-15T15:19:22;7.10;99.90
11320;DHT22;5715;48.234;14.320;2022-11-15T15:22:15;7.20;99.90
11320;DHT22;5715;48.234;14.320;2022-11-15T15:25:23;7.20;99.90
11320;DHT22;5715;48.234;14.320;2022-11-15T15:28:22;7.20;99.90
11320;DHT22;5715;48.234;14.320;2022-11-15T15:31:09;7.10;99.90
11320;DHT22;5715;48.234;14.320;2022-11-15T15:33:57;7.10;99.90
11320;DHT22;5715;48.234;14.320;2022-11-15T15:36:45;7.10;99.90
11320;DHT22;5715;48.234;14.320;2022-11-15T15:39:33;7.10;99.90
11320;DHT22;5715;48.234;14.320;2022-11-15T15:42:21;7.10;99.90
11320;DHT22;5715;48.234;14.320;2022-11-15T15:45:10;7.20;99.90
11320;DHT22;5715;48.234;14.320;2022-11-15T15:47:58;7.20;99.90
11320;DHT22;5715;48.234;14.320;2022-11-15T15:50:45;7.20;99.90
11320;DHT22;5715;48.234;14.320;2022-11-15T15:53:34;7.30;99.90
11320;DHT22;5715;48.234;14.320;2022-11-15T15:56:22;7.30;99.90
11320;DHT22;5715;48.234;14.320;2022-11-15T15:59:09;7.20;99.90
11320;DHT22;5715;48.234;14.320;2022-11-15T16:01:57;7.20;99.90
11320;DHT22;5715;48.234;14.320;2022-11-15T16:04:45;7.10;99.90
11320;DHT22;5715;48.234;14.320;2022-11-15T16:07:32;7.20;99.90
11320;DHT22;5715;48.234;14.320;2022-11-15T16:10:26;7.20;99.90
11320;DHT22;5715;48.234;14.320;2022-11-15T16:13:15;7.20;99.90
11320;DHT22;5715;48.234;14.320;2022-11-15T16:16:04;7.20;99.90
11320;DHT22;5715;48.234;14.320;2022-11-15T16:18:59;7.20;99.90
11320;DHT22;5715;48.234;14.320;2022-11-15T16:21:48;7.20;99.90
11320;DHT22;5715;48.234;14.320;2022-11-15T16:24:35;7.20;99.90
11320;DHT22;5715;48.234;14.320;2022-11-15T16:27:23;7.30;99.90
11320;DHT22;5715;48.234;14.320;2022-11-15T16:30:14;7.30;99.90
11320;DHT22;5715;48.234;14.320;2022-11-15T16:33:04;7.20;99.90
11320;DHT22;5715;48.234;14.320;2022-11-15T16:35:51;7.20;99.90
11320;DHT22;5715;48.234;14.320;2022-11-15T16:38:39;7.30;99.90
11320;DHT22;5715;48.234;14.320;2022-11-15T16:41:26;7.30;99.90
11320;DHT22;5715;48.234;14.320;2022-11-15T16:44:14;7.30;99.90
11320;DHT22;5715;48.234;14.320;2022-11-15T16:47:02;7.30;99.90
11320;DHT22;5715;48.234;14.320;2022-11-15T16:49:53;7.30;99.90
11320;DHT22;5715;48.234;14.320;2022-11-15T16:52:40;7.30;99.90
11320;DHT22;5715;48.234;14.320;2022-11-15T16:55:28;7.30;99.90
11320;DHT22;5715;48.234;14.320;2022-11-15T16:58:16;7.30;99.90
11320;DHT22;5715;48.234;14.320;2022-11-15T17:01:04;7.30;99.90
11320;DHT22;5715;48.234;14.320;2022-11-15T17:03:52;7.30;99.90
11320;DHT22;5715;48.234;14.320;2022-11-15T17:06:43;7.20;99.90
11320;DHT22;5715;48.234;14.320;2022-11-15T17:09:33;7.30;99.90
11320;DHT22;5715;48.234;14.320;2022-11-15T17:12:21;7.30;99.90
11320;DHT22;5715;48.234;14.320;2022-11-15T17:15:11;7.30;99.90
11320;DHT22;5715;48.234;14.320;2022-11-15T17:17:59;7.30;99.90
11320;DHT22;5715;48.234;14.320;2022-11-15T17:20:47;7.30;99.90
11320;DHT22;5715;48.234;14.320;2022-11-15T17:23:34;7.30;99.90
11320;DHT22;5715;48.234;14.320;2022-11-15T17:26:22;7.30;99.90
11320;DHT22;5715;48.234;14.320;2022-11-15T17:29:17;7.30;99.90
11320;DHT22;5715;48.234;14.320;2022-11-15T17:32:04;7.30;99.90
11320;DHT22;5715;48.234;14.320;2022-11-15T17:34:52;7.40;99.90
11320;DHT22;5715;48.234;14.320;2022-11-15T17:37:39;7.40;99.90
11320;DHT22;5715;48.234;14.320;2022-11-15T17:40:27;7.40;99.90
11320;DHT22;5715;48.234;14.320;2022-11-15T17:43:14;7.40;99.90
11320;DHT22;5715;48.234;14.320;2022-11-15T17:46:08;7.40;99.90
11320;DHT22;5715;48.234;14.320;2022-11-15T17:48:58;7.40;99.90
11320;DHT22;5715;48.234;14.320;2022-11-15T17:51:46;7.40;99.90
11320;DHT22;5715;48.234;14.320;2022-11-15T17:54:36;7.40;99.90
11320;DHT22;5715;48.234;14.320;2022-11-15T17:57:23;7.40;99.90
11320;DHT22;5715;48.234;14.320;2022-11-15T18:00:11;7.50;99.90
11320;DHT22;5715;48.234;14.320;2022-11-15T18:02:59;7.40;99.90
11320;DHT22;5715;48.234;14.320;2022-11-15T18:05:47;7.40;99.90
11320;DHT22;5715;48.234;14.320;2022-11-15T18:08:35;7.40;99.90
11320;DHT22;5715;48.234;14.320;2022-11-15T18:11:29;7.40;99.90
11320;DHT22;5715;48.234;14.320;2022-11-15T18:14:19;7.50;99.90
11320;DHT22;5715;48.234;14.320;2022-11-15T18:17:08;7.40;99.90
11320;DHT22;5715;48.234;14.320;2022-11-15T18:19:55;7.40;99.90
11320;DHT22;5715;48.234;14.320;2022-11-15T18:22:43;7.40;99.90
11320;DHT22;5715;48.234;14.320;2022-11-15T18:25:31;7.40;99.90
11320;DHT22;5715;48.234;14.320;2022-11-15T18:28:18;7.50;99.90
11320;DHT22;5715;48.234;14.320;2022-11-15T18:31:26;7.40;99.90
11320;DHT22;5715;48.234;14.320;2022-11-15T18:34:15;7.40;99.90
11320;DHT22;5715;48.234;14.320;2022-11-15T18:37:04;7.40;99.90
11320;DHT22;5715;48.234;14.320;2022-11-15T18:39:51;7.40;99.90
11320;DHT22;5715;48.234;14.320;2022-11-15T18:42:40;7.40;99.90
11320;DHT22;5715;48.234;14.320;2022-11-15T18:45:27;7.40;99.90
11320;DHT22;5715;48.234;14.320;2022-11-15T18:48:15;7.40;99.90
11320;DHT22;5715;48.234;14.320;2022-11-15T18:51:07;7.40;99.90
11320;DHT22;5715;48.234;14.320;2022-11-15T18:53:59;7.40;99.90
11320;DHT22;5715;48.234;14.320;2022-11-15T18:56:47;7.40;99.90
11320;DHT22;5715;48.234;14.320;2022-11-15T18:59:35;7.40;99.90
11320;DHT22;5715;48.234;14.320;2022-11-15T19:02:22;7.50;99.90
11320;DHT22;5715;48.234;14.320;2022-11-15T19:05:10;7.40;99.90
11320;DHT22;5715;48.234;14.320;2022-11-15T19:07:59;7.40;99.90
11320;DHT22;5715;48.234;14.320;2022-11-15T19:10:46;7.40;99.90
11320;DHT22;5715;48.234;14.320;2022-11-15T19:13:33;7.40;99.90
11320;DHT22;5715;48.234;14.320;2022-11-15T19:16:23;7.40;99.90
11320;DHT22;5715;48.234;14.320;2022-11-15T19:19:13;7.40;99.90
11320;DHT22;5715;48.234;14.320;2022-11-15T19:22:02;7.40;99.90
11320;DHT22;5715;48.234;14.320;2022-11-15T19:24:50;7.40;99.90
11320;DHT22;5715;48.234;14.320;2022-11-15T19:27:37;7.30;99.90
11320;DHT22;5715;48.234;14.320;2022-11-15T19:30:25;7.30;99.90
11320;DHT22;5715;48.234;14.320;2022-11-15T19:33:13;7.20;99.90
11320;DHT22;5715;48.234;14.320;2022-11-15T19:36:02;7.20;99.90
11320;DHT22;5715;48.234;14.320;2022-11-15T19:38:52;7.30;99.90
11320;DHT22;5715;48.234;14.320;2022-11-15T19:41:42;7.20;99.90
11320;DHT22;5715;48.234;14.320;2022-11-15T19:44:30;7.20;99.90
11320;DHT22;5715;48.234;14.320;2022-11-15T19:47:18;7.20;99.90
11320;DHT22;5715;48.234;14.320;2022-11-15T19:50:05;7.20;99.90
11320;DHT22;5715;48.234;14.320;2022-11-15T19:52:53;7.20;99.90
11320;DHT22;5715;48.234;14.320;2022-11-15T19:55:41;7.10;99.90
11320;DHT22;5715;48.234;14.320;2022-11-15T19:58:29;6.90;99.90
11320;DHT22;5715;48.234;14.320;2022-11-15T20:01:23;6.80;99.90
11320;DHT22;5715;48.234;14.320;2022-11-15T20:04:12;6.80;99.90
11320;DHT22;5715;48.234;14.320;2022-11-15T20:06:59;6.70;99.90